Aviation Digital Data Service (ADDS)

Output produced by METARs form (0638 UTC 23 October 2014)
found at http://aviationweather.gov/adds/metars/
 
KBPT 230553Z 05008KT 10SM CLR 18/12 A3007 RMK AO2 SLP183 T01830122 10233 20183 402780172 58003